sensor_id;sensor_type;location;lat;lon;timestamp;P1;durP1;ratioP1;P2;durP2;ratioP2
49578;SDS011;35483;50.828;3.228;2023-08-24T00:02:02;6.28;;;4.95;;
49578;SDS011;35483;50.828;3.228;2023-08-24T00:04:28;6.05;;;4.55;;
49578;SDS011;35483;50.828;3.228;2023-08-24T00:06:54;8.32;;;5.03;;
49578;SDS011;35483;50.828;3.228;2023-08-24T00:09:20;8.65;;;5.07;;
49578;SDS011;35483;50.828;3.228;2023-08-24T00:11:46;7.55;;;4.75;;
49578;SDS011;35483;50.828;3.228;2023-08-24T00:14:12;8.73;;;5.38;;
49578;SDS011;35483;50.828;3.228;2023-08-24T00:16:38;8.00;;;5.03;;
49578;SDS011;35483;50.828;3.228;2023-08-24T00:19:04;7.47;;;5.07;;
49578;SDS011;35483;50.828;3.228;2023-08-24T00:21:30;6.15;;;5.20;;
49578;SDS011;35483;50.828;3.228;2023-08-24T00:23:55;8.00;;;5.05;;
49578;SDS011;35483;50.828;3.228;2023-08-24T00:26:21;8.15;;;5.07;;
49578;SDS011;35483;50.828;3.228;2023-08-24T00:28:48;8.38;;;5.20;;
49578;SDS011;35483;50.828;3.228;2023-08-24T00:31:17;7.05;;;5.03;;
49578;SDS011;35483;50.828;3.228;2023-08-24T00:33:43;6.82;;;5.13;;
49578;SDS011;35483;50.828;3.228;2023-08-24T00:36:09;10.27;;;6.03;;
49578;SDS011;35483;50.828;3.228;2023-08-24T00:38:35;6.22;;;5.40;;
49578;SDS011;35483;50.828;3.228;2023-08-24T00:41:01;6.20;;;5.60;;
49578;SDS011;35483;50.828;3.228;2023-08-24T00:43:27;6.43;;;5.45;;
49578;SDS011;35483;50.828;3.228;2023-08-24T00:45:57;7.97;;;5.60;;
49578;SDS011;35483;50.828;3.228;2023-08-24T00:48:26;7.72;;;5.10;;
49578;SDS011;35483;50.828;3.228;2023-08-24T00:50:57;7.13;;;5.25;;
49578;SDS011;35483;50.828;3.228;2023-08-24T00:53:26;6.57;;;5.72;;
49578;SDS011;35483;50.828;3.228;2023-08-24T00:55:54;6.88;;;6.18;;
49578;SDS011;35483;50.828;3.228;2023-08-24T00:58:20;8.07;;;6.03;;
49578;SDS011;35483;50.828;3.228;2023-08-24T01:00:47;10.65;;;6.70;;
49578;SDS011;35483;50.828;3.228;2023-08-24T01:03:17;7.88;;;6.75;;
49578;SDS011;35483;50.828;3.228;2023-08-24T01:05:43;11.80;;;6.60;;
49578;SDS011;35483;50.828;3.228;2023-08-24T01:08:10;10.70;;;7.03;;
49578;SDS011;35483;50.828;3.228;2023-08-24T01:10:52;9.13;;;6.90;;
49578;SDS011;35483;50.828;3.228;2023-08-24T01:13:42;8.77;;;7.75;;
49578;SDS011;35483;50.828;3.228;2023-08-24T01:16:15;11.82;;;8.07;;
49578;SDS011;35483;50.828;3.228;2023-08-24T01:18:44;14.38;;;7.97;;
49578;SDS011;35483;50.828;3.228;2023-08-24T01:21:12;9.63;;;7.65;;
49578;SDS011;35483;50.828;3.228;2023-08-24T01:23:45;10.07;;;7.93;;
49578;SDS011;35483;50.828;3.228;2023-08-24T01:26:28;9.57;;;8.57;;
49578;SDS011;35483;50.828;3.228;2023-08-24T01:28:54;11.27;;;8.65;;
49578;SDS011;35483;50.828;3.228;2023-08-24T01:31:20;10.75;;;8.60;;
49578;SDS011;35483;50.828;3.228;2023-08-24T01:33:46;12.25;;;9.40;;
49578;SDS011;35483;50.828;3.228;2023-08-24T01:36:13;9.35;;;8.35;;
49578;SDS011;35483;50.828;3.228;2023-08-24T01:38:44;12.45;;;8.13;;
49578;SDS011;35483;50.828;3.228;2023-08-24T01:43:46;12.82;;;8.52;;
49578;SDS011;35483;50.828;3.228;2023-08-24T01:46:17;12.27;;;8.38;;
49578;SDS011;35483;50.828;3.228;2023-08-24T01:48:45;10.93;;;8.77;;
49578;SDS011;35483;50.828;3.228;2023-08-24T01:51:12;11.90;;;9.00;;
49578;SDS011;35483;50.828;3.228;2023-08-24T01:53:39;10.40;;;8.20;;
49578;SDS011;35483;50.828;3.228;2023-08-24T01:56:10;9.82;;;8.30;;
49578;SDS011;35483;50.828;3.228;2023-08-24T01:58:36;9.73;;;7.60;;
49578;SDS011;35483;50.828;3.228;2023-08-24T02:01:02;9.48;;;7.88;;
49578;SDS011;35483;50.828;3.228;2023-08-24T02:03:29;10.38;;;8.85;;
49578;SDS011;35483;50.828;3.228;2023-08-24T02:05:55;13.27;;;8.70;;
49578;SDS011;35483;50.828;3.228;2023-08-24T02:08:21;9.32;;;8.10;;
49578;SDS011;35483;50.828;3.228;2023-08-24T02:10:47;10.38;;;8.38;;
49578;SDS011;35483;50.828;3.228;2023-08-24T02:13:13;10.23;;;8.63;;
49578;SDS011;35483;50.828;3.228;2023-08-24T02:15:38;11.73;;;8.63;;
49578;SDS011;35483;50.828;3.228;2023-08-24T02:18:05;10.73;;;8.35;;
49578;SDS011;35483;50.828;3.228;2023-08-24T02:20:34;11.88;;;8.55;;
49578;SDS011;35483;50.828;3.228;2023-08-24T02:23:03;10.38;;;8.40;;
49578;SDS011;35483;50.828;3.228;2023-08-24T02:25:30;10.23;;;8.30;;
49578;SDS011;35483;50.828;3.228;2023-08-24T02:27:56;10.88;;;8.38;;
49578;SDS011;35483;50.828;3.228;2023-08-24T02:30:22;12.32;;;9.27;;
49578;SDS011;35483;50.828;3.228;2023-08-24T02:32:48;11.63;;;8.43;;
49578;SDS011;35483;50.828;3.228;2023-08-24T02:35:14;9.90;;;8.65;;
49578;SDS011;35483;50.828;3.228;2023-08-24T02:37:40;11.80;;;8.35;;
49578;SDS011;35483;50.828;3.228;2023-08-24T02:40:06;10.52;;;8.55;;
49578;SDS011;35483;50.828;3.228;2023-08-24T02:42:34;10.70;;;8.23;;
49578;SDS011;35483;50.828;3.228;2023-08-24T02:45:00;9.30;;;8.02;;
49578;SDS011;35483;50.828;3.228;2023-08-24T02:47:26;10.10;;;7.65;;
49578;SDS011;35483;50.828;3.228;2023-08-24T02:49:52;11.82;;;8.68;;
49578;SDS011;35483;50.828;3.228;2023-08-24T02:52:17;10.35;;;8.43;;
49578;SDS011;35483;50.828;3.228;2023-08-24T02:54:43;9.75;;;7.90;;
49578;SDS011;35483;50.828;3.228;2023-08-24T02:57:09;11.88;;;8.70;;
49578;SDS011;35483;50.828;3.228;2023-08-24T02:59:35;10.50;;;8.38;;
49578;SDS011;35483;50.828;3.228;2023-08-24T03:02:01;10.60;;;8.88;;
49578;SDS011;35483;50.828;3.228;2023-08-24T03:04:26;12.50;;;9.60;;
49578;SDS011;35483;50.828;3.228;2023-08-24T03:06:52;11.27;;;8.95;;
49578;SDS011;35483;50.828;3.228;2023-08-24T03:09:18;11.90;;;8.93;;
49578;SDS011;35483;50.828;3.228;2023-08-24T03:11:44;11.80;;;9.23;;
49578;SDS011;35483;50.828;3.228;2023-08-24T03:14:10;9.43;;;8.27;;
49578;SDS011;35483;50.828;3.228;2023-08-24T03:16:37;10.02;;;8.35;;
49578;SDS011;35483;50.828;3.228;2023-08-24T03:19:04;11.40;;;8.13;;
49578;SDS011;35483;50.828;3.228;2023-08-24T03:21:31;11.70;;;8.65;;
49578;SDS011;35483;50.828;3.228;2023-08-24T03:23:56;11.38;;;8.48;;
49578;SDS011;35483;50.828;3.228;2023-08-24T03:26:22;10.70;;;7.63;;
49578;SDS011;35483;50.828;3.228;2023-08-24T03:28:48;10.68;;;7.85;;
49578;SDS011;35483;50.828;3.228;2023-08-24T03:31:14;12.18;;;8.35;;
49578;SDS011;35483;50.828;3.228;2023-08-24T03:33:40;10.50;;;8.32;;
49578;SDS011;35483;50.828;3.228;2023-08-24T03:36:06;9.88;;;7.95;;
49578;SDS011;35483;50.828;3.228;2023-08-24T03:38:32;9.05;;;8.00;;
49578;SDS011;35483;50.828;3.228;2023-08-24T03:41:04;9.93;;;8.20;;
49578;SDS011;35483;50.828;3.228;2023-08-24T03:43:34;11.32;;;10.00;;
49578;SDS011;35483;50.828;3.228;2023-08-24T03:46:02;11.57;;;8.75;;
49578;SDS011;35483;50.828;3.228;2023-08-24T03:48:30;9.52;;;8.48;;
49578;SDS011;35483;50.828;3.228;2023-08-24T03:50:56;12.65;;;9.65;;
49578;SDS011;35483;50.828;3.228;2023-08-24T03:53:23;11.63;;;10.43;;
49578;SDS011;35483;50.828;3.228;2023-08-24T03:55:50;9.52;;;8.50;;
49578;SDS011;35483;50.828;3.228;2023-08-24T03:58:17;12.35;;;8.93;;
49578;SDS011;35483;50.828;3.228;2023-08-24T04:00:44;11.93;;;8.93;;
49578;SDS011;35483;50.828;3.228;2023-08-24T04:03:10;11.45;;;8.77;;
49578;SDS011;35483;50.828;3.228;2023-08-24T04:05:36;11.82;;;9.45;;
49578;SDS011;35483;50.828;3.228;2023-08-24T04:08:02;12.98;;;9.20;;
49578;SDS011;35483;50.828;3.228;2023-08-24T04:10:29;12.00;;;8.63;;
49578;SDS011;35483;50.828;3.228;2023-08-24T04:12:55;11.63;;;8.65;;
49578;SDS011;35483;50.828;3.228;2023-08-24T04:15:21;12.20;;;9.27;;
49578;SDS011;35483;50.828;3.228;2023-08-24T04:17:47;15.32;;;9.82;;
49578;SDS011;35483;50.828;3.228;2023-08-24T04:20:14;12.63;;;9.25;;
49578;SDS011;35483;50.828;3.228;2023-08-24T04:22:41;12.43;;;9.32;;
49578;SDS011;35483;50.828;3.228;2023-08-24T04:25:07;10.48;;;9.10;;
49578;SDS011;35483;50.828;3.228;2023-08-24T04:27:33;13.23;;;9.57;;
49578;SDS011;35483;50.828;3.228;2023-08-24T04:29:59;13.90;;;9.60;;
49578;SDS011;35483;50.828;3.228;2023-08-24T04:32:25;10.77;;;9.32;;
49578;SDS011;35483;50.828;3.228;2023-08-24T04:34:52;11.82;;;10.30;;
49578;SDS011;35483;50.828;3.228;2023-08-24T04:37:18;10.98;;;8.80;;
49578;SDS011;35483;50.828;3.228;2023-08-24T04:39:44;12.93;;;9.68;;
49578;SDS011;35483;50.828;3.228;2023-08-24T04:42:09;10.93;;;9.02;;
49578;SDS011;35483;50.828;3.228;2023-08-24T04:44:35;11.45;;;9.18;;
49578;SDS011;35483;50.828;3.228;2023-08-24T04:47:01;11.30;;;9.00;;
49578;SDS011;35483;50.828;3.228;2023-08-24T04:49:27;11.32;;;9.27;;
49578;SDS011;35483;50.828;3.228;2023-08-24T04:51:53;15.50;;;10.32;;
49578;SDS011;35483;50.828;3.228;2023-08-24T04:54:19;10.93;;;8.50;;
49578;SDS011;35483;50.828;3.228;2023-08-24T04:56:46;13.70;;;9.25;;
49578;SDS011;35483;50.828;3.228;2023-08-24T04:59:12;10.63;;;8.82;;
49578;SDS011;35483;50.828;3.228;2023-08-24T05:01:38;11.07;;;9.63;;
49578;SDS011;35483;50.828;3.228;2023-08-24T05:04:03;11.43;;;9.27;;
49578;SDS011;35483;50.828;3.228;2023-08-24T05:06:29;12.00;;;9.73;;
49578;SDS011;35483;50.828;3.228;2023-08-24T05:08:55;11.20;;;9.70;;
49578;SDS011;35483;50.828;3.228;2023-08-24T05:11:22;10.60;;;8.35;;
49578;SDS011;35483;50.828;3.228;2023-08-24T05:13:51;11.45;;;9.13;;
49578;SDS011;35483;50.828;3.228;2023-08-24T05:16:17;11.65;;;8.73;;
49578;SDS011;35483;50.828;3.228;2023-08-24T05:18:43;9.65;;;8.45;;
49578;SDS011;35483;50.828;3.228;2023-08-24T05:21:09;11.43;;;9.82;;
49578;SDS011;35483;50.828;3.228;2023-08-24T05:23:35;13.52;;;9.32;;
49578;SDS011;35483;50.828;3.228;2023-08-24T05:26:01;11.25;;;9.02;;
49578;SDS011;35483;50.828;3.228;2023-08-24T05:28:28;11.20;;;9.18;;
49578;SDS011;35483;50.828;3.228;2023-08-24T05:30:54;11.35;;;9.45;;
49578;SDS011;35483;50.828;3.228;2023-08-24T05:33:21;9.75;;;8.75;;
49578;SDS011;35483;50.828;3.228;2023-08-24T05:35:49;10.88;;;9.40;;
49578;SDS011;35483;50.828;3.228;2023-08-24T05:38:15;13.55;;;8.70;;
49578;SDS011;35483;50.828;3.228;2023-08-24T05:40:42;11.07;;;9.10;;
49578;SDS011;35483;50.828;3.228;2023-08-24T05:43:11;14.48;;;9.32;;
49578;SDS011;35483;50.828;3.228;2023-08-24T05:45:37;10.27;;;8.10;;
49578;SDS011;35483;50.828;3.228;2023-08-24T05:48:04;10.27;;;8.60;;
49578;SDS011;35483;50.828;3.228;2023-08-24T05:50:31;10.73;;;9.23;;
49578;SDS011;35483;50.828;3.228;2023-08-24T05:52:56;10.15;;;8.85;;
49578;SDS011;35483;50.828;3.228;2023-08-24T05:55:22;10.30;;;9.18;;
49578;SDS011;35483;50.828;3.228;2023-08-24T05:57:48;10.60;;;8.75;;
49578;SDS011;35483;50.828;3.228;2023-08-24T06:00:14;13.65;;;10.02;;
49578;SDS011;35483;50.828;3.228;2023-08-24T06:02:41;10.35;;;8.23;;
49578;SDS011;35483;50.828;3.228;2023-08-24T06:05:07;11.48;;;8.70;;
49578;SDS011;35483;50.828;3.228;2023-08-24T06:07:33;11.88;;;9.27;;
49578;SDS011;35483;50.828;3.228;2023-08-24T06:09:59;10.98;;;9.50;;
49578;SDS011;35483;50.828;3.228;2023-08-24T06:12:25;11.93;;;9.20;;
49578;SDS011;35483;50.828;3.228;2023-08-24T06:14:51;13.63;;;9.95;;
49578;SDS011;35483;50.828;3.228;2023-08-24T06:17:17;11.95;;;9.80;;
49578;SDS011;35483;50.828;3.228;2023-08-24T06:19:43;10.52;;;9.00;;
49578;SDS011;35483;50.828;3.228;2023-08-24T06:22:08;12.40;;;9.05;;
49578;SDS011;35483;50.828;3.228;2023-08-24T06:24:36;13.32;;;9.38;;
49578;SDS011;35483;50.828;3.228;2023-08-24T06:27:01;11.95;;;9.32;;
49578;SDS011;35483;50.828;3.228;2023-08-24T06:29:28;10.20;;;9.10;;
49578;SDS011;35483;50.828;3.228;2023-08-24T06:31:54;11.55;;;8.88;;
49578;SDS011;35483;50.828;3.228;2023-08-24T06:34:20;13.13;;;9.65;;
49578;SDS011;35483;50.828;3.228;2023-08-24T06:36:46;13.48;;;10.05;;
49578;SDS011;35483;50.828;3.228;2023-08-24T06:39:12;13.02;;;8.55;;
49578;SDS011;35483;50.828;3.228;2023-08-24T06:41:38;13.95;;;9.13;;
49578;SDS011;35483;50.828;3.228;2023-08-24T06:44:04;13.63;;;8.52;;
49578;SDS011;35483;50.828;3.228;2023-08-24T06:46:30;14.63;;;8.75;;
49578;SDS011;35483;50.828;3.228;2023-08-24T06:48:56;12.52;;;9.43;;
49578;SDS011;35483;50.828;3.228;2023-08-24T06:51:22;12.85;;;8.90;;
49578;SDS011;35483;50.828;3.228;2023-08-24T06:53:48;11.40;;;8.50;;
49578;SDS011;35483;50.828;3.228;2023-08-24T06:56:14;14.02;;;9.45;;
49578;SDS011;35483;50.828;3.228;2023-08-24T06:58:43;13.63;;;9.35;;
49578;SDS011;35483;50.828;3.228;2023-08-24T07:01:10;13.70;;;9.10;;
49578;SDS011;35483;50.828;3.228;2023-08-24T07:03:36;10.85;;;8.73;;
49578;SDS011;35483;50.828;3.228;2023-08-24T07:06:02;12.93;;;9.68;;
49578;SDS011;35483;50.828;3.228;2023-08-24T07:08:30;10.88;;;9.50;;
49578;SDS011;35483;50.828;3.228;2023-08-24T07:10:56;11.35;;;8.95;;
49578;SDS011;35483;50.828;3.228;2023-08-24T07:13:21;11.95;;;9.13;;
49578;SDS011;35483;50.828;3.228;2023-08-24T07:15:47;15.95;;;9.40;;
49578;SDS011;35483;50.828;3.228;2023-08-24T07:18:13;14.88;;;9.07;;
49578;SDS011;35483;50.828;3.228;2023-08-24T07:20:38;12.95;;;8.23;;
49578;SDS011;35483;50.828;3.228;2023-08-24T07:23:04;12.73;;;8.13;;
49578;SDS011;35483;50.828;3.228;2023-08-24T07:25:30;11.75;;;7.82;;
49578;SDS011;35483;50.828;3.228;2023-08-24T07:27:57;10.90;;;7.60;;
49578;SDS011;35483;50.828;3.228;2023-08-24T07:30:26;11.30;;;7.60;;
49578;SDS011;35483;50.828;3.228;2023-08-24T07:32:52;13.18;;;7.70;;
49578;SDS011;35483;50.828;3.228;2023-08-24T07:35:19;10.73;;;8.00;;
49578;SDS011;35483;50.828;3.228;2023-08-24T07:37:46;8.75;;;7.32;;
49578;SDS011;35483;50.828;3.228;2023-08-24T07:40:13;11.23;;;7.68;;
49578;SDS011;35483;50.828;3.228;2023-08-24T07:42:42;15.10;;;7.85;;
49578;SDS011;35483;50.828;3.228;2023-08-24T07:45:09;10.57;;;8.43;;
49578;SDS011;35483;50.828;3.228;2023-08-24T07:47:35;12.20;;;7.65;;
49578;SDS011;35483;50.828;3.228;2023-08-24T07:50:01;10.65;;;8.88;;
49578;SDS011;35483;50.828;3.228;2023-08-24T07:52:26;8.88;;;7.53;;
49578;SDS011;35483;50.828;3.228;2023-08-24T07:54:53;10.35;;;8.88;;
49578;SDS011;35483;50.828;3.228;2023-08-24T07:57:20;9.18;;;7.63;;
49578;SDS011;35483;50.828;3.228;2023-08-24T07:59:46;10.07;;;7.95;;
49578;SDS011;35483;50.828;3.228;2023-08-24T08:02:12;10.93;;;8.85;;
49578;SDS011;35483;50.828;3.228;2023-08-24T08:04:40;10.65;;;8.32;;
49578;SDS011;35483;50.828;3.228;2023-08-24T08:07:06;14.75;;;8.35;;
49578;SDS011;35483;50.828;3.228;2023-08-24T08:09:32;8.88;;;7.07;;
49578;SDS011;35483;50.828;3.228;2023-08-24T08:11:57;9.85;;;7.82;;
49578;SDS011;35483;50.828;3.228;2023-08-24T08:14:23;11.00;;;8.13;;
49578;SDS011;35483;50.828;3.228;2023-08-24T08:16:51;11.98;;;8.73;;
49578;SDS011;35483;50.828;3.228;2023-08-24T08:19:16;9.63;;;8.20;;
49578;SDS011;35483;50.828;3.228;2023-08-24T08:21:44;11.13;;;8.82;;
49578;SDS011;35483;50.828;3.228;2023-08-24T08:24:10;9.90;;;8.10;;
49578;SDS011;35483;50.828;3.228;2023-08-24T08:26:36;14.38;;;8.68;;
49578;SDS011;35483;50.828;3.228;2023-08-24T08:29:01;10.52;;;8.35;;
49578;SDS011;35483;50.828;3.228;2023-08-24T08:31:27;13.02;;;8.90;;
49578;SDS011;35483;50.828;3.228;2023-08-24T08:33:53;12.32;;;8.60;;
49578;SDS011;35483;50.828;3.228;2023-08-24T08:36:19;13.63;;;9.32;;
49578;SDS011;35483;50.828;3.228;2023-08-24T08:38:44;13.15;;;9.00;;
49578;SDS011;35483;50.828;3.228;2023-08-24T08:41:10;13.18;;;9.55;;
49578;SDS011;35483;50.828;3.228;2023-08-24T08:43:38;13.25;;;9.52;;
49578;SDS011;35483;50.828;3.228;2023-08-24T08:46:04;17.55;;;10.23;;
49578;SDS011;35483;50.828;3.228;2023-08-24T08:48:33;12.85;;;9.38;;
49578;SDS011;35483;50.828;3.228;2023-08-24T08:51:00;12.05;;;8.52;;
49578;SDS011;35483;50.828;3.228;2023-08-24T08:53:27;10.07;;;7.75;;
49578;SDS011;35483;50.828;3.228;2023-08-24T08:55:54;9.55;;;7.93;;
49578;SDS011;35483;50.828;3.228;2023-08-24T08:58:22;8.63;;;7.13;;
49578;SDS011;35483;50.828;3.228;2023-08-24T09:00:50;8.82;;;7.93;;
49578;SDS011;35483;50.828;3.228;2023-08-24T09:03:17;10.98;;;7.60;;
49578;SDS011;35483;50.828;3.228;2023-08-24T09:05:44;7.82;;;7.10;;
49578;SDS011;35483;50.828;3.228;2023-08-24T09:08:13;9.48;;;7.22;;
49578;SDS011;35483;50.828;3.228;2023-08-24T09:10:43;6.53;;;5.85;;
49578;SDS011;35483;50.828;3.228;2023-08-24T09:13:10;8.63;;;6.30;;
49578;SDS011;35483;50.828;3.228;2023-08-24T09:15:36;6.20;;;5.03;;
49578;SDS011;35483;50.828;3.228;2023-08-24T09:18:02;5.70;;;4.63;;
49578;SDS011;35483;50.828;3.228;2023-08-24T09:20:28;7.60;;;4.85;;
49578;SDS011;35483;50.828;3.228;2023-08-24T09:22:54;5.22;;;4.32;;
49578;SDS011;35483;50.828;3.228;2023-08-24T09:25:22;4.20;;;3.72;;
49578;SDS011;35483;50.828;3.228;2023-08-24T09:30:27;9.32;;;4.75;;
49578;SDS011;35483;50.828;3.228;2023-08-24T09:32:54;8.93;;;4.90;;
49578;SDS011;35483;50.828;3.228;2023-08-24T09:35:20;6.93;;;4.80;;
49578;SDS011;35483;50.828;3.228;2023-08-24T09:37:46;5.70;;;5.00;;
49578;SDS011;35483;50.828;3.228;2023-08-24T09:40:14;5.78;;;4.68;;
49578;SDS011;35483;50.828;3.228;2023-08-24T09:42:41;5.82;;;5.13;;
49578;SDS011;35483;50.828;3.228;2023-08-24T09:45:13;6.95;;;5.25;;
49578;SDS011;35483;50.828;3.228;2023-08-24T09:47:44;5.60;;;4.60;;
49578;SDS011;35483;50.828;3.228;2023-08-24T09:50:17;5.57;;;4.20;;
49578;SDS011;35483;50.828;3.228;2023-08-24T09:52:43;5.40;;;4.75;;
49578;SDS011;35483;50.828;3.228;2023-08-24T09:55:11;7.65;;;4.63;;
49578;SDS011;35483;50.828;3.228;2023-08-24T09:57:43;5.30;;;4.50;;
49578;SDS011;35483;50.828;3.228;2023-08-24T10:00:10;5.38;;;4.50;;
49578;SDS011;35483;50.828;3.228;2023-08-24T10:02:37;6.60;;;4.90;;
49578;SDS011;35483;50.828;3.228;2023-08-24T10:05:15;9.05;;;5.18;;
49578;SDS011;35483;50.828;3.228;2023-08-24T10:07:50;10.07;;;5.70;;
49578;SDS011;35483;50.828;3.228;2023-08-24T10:10:19;7.65;;;5.22;;
49578;SDS011;35483;50.828;3.228;2023-08-24T10:12:47;5.65;;;4.80;;
49578;SDS011;35483;50.828;3.228;2023-08-24T10:15:15;5.85;;;4.53;;
49578;SDS011;35483;50.828;3.228;2023-08-24T10:17:43;5.85;;;4.78;;
49578;SDS011;35483;50.828;3.228;2023-08-24T10:20:10;5.47;;;4.75;;
49578;SDS011;35483;50.828;3.228;2023-08-24T10:22:37;6.60;;;4.57;;
49578;SDS011;35483;50.828;3.228;2023-08-24T10:25:06;5.00;;;3.97;;
49578;SDS011;35483;50.828;3.228;2023-08-24T10:27:34;5.90;;;4.40;;
49578;SDS011;35483;50.828;3.228;2023-08-24T10:30:01;5.75;;;4.22;;
49578;SDS011;35483;50.828;3.228;2023-08-24T10:32:27;5.50;;;4.78;;
49578;SDS011;35483;50.828;3.228;2023-08-24T10:34:54;5.65;;;4.35;;
49578;SDS011;35483;50.828;3.228;2023-08-24T10:37:26;7.20;;;4.40;;
49578;SDS011;35483;50.828;3.228;2023-08-24T10:39:53;4.57;;;4.10;;
49578;SDS011;35483;50.828;3.228;2023-08-24T10:42:19;6.43;;;4.35;;
49578;SDS011;35483;50.828;3.228;2023-08-24T10:44:46;5.47;;;3.92;;
49578;SDS011;35483;50.828;3.228;2023-08-24T10:47:22;5.35;;;3.70;;
49578;SDS011;35483;50.828;3.228;2023-08-24T10:52:21;5.47;;;3.97;;
49578;SDS011;35483;50.828;3.228;2023-08-24T10:57:37;8.02;;;4.05;;
49578;SDS011;35483;50.828;3.228;2023-08-24T11:00:05;6.03;;;3.85;;
49578;SDS011;35483;50.828;3.228;2023-08-24T11:02:47;5.68;;;4.03;;
49578;SDS011;35483;50.828;3.228;2023-08-24T11:07:48;4.63;;;3.33;;
49578;SDS011;35483;50.828;3.228;2023-08-24T11:10:22;6.97;;;3.63;;
49578;SDS011;35483;50.828;3.228;2023-08-24T11:15:44;4.45;;;3.58;;
49578;SDS011;35483;50.828;3.228;2023-08-24T11:18:24;5.20;;;3.90;;
49578;SDS011;35483;50.828;3.228;2023-08-24T11:21:05;4.43;;;3.80;;
49578;SDS011;35483;50.828;3.228;2023-08-24T11:23:31;5.55;;;3.80;;
49578;SDS011;35483;50.828;3.228;2023-08-24T11:25:59;5.70;;;4.20;;
49578;SDS011;35483;50.828;3.228;2023-08-24T11:28:26;8.32;;;4.57;;
49578;SDS011;35483;50.828;3.228;2023-08-24T11:30:53;6.57;;;3.90;;
49578;SDS011;35483;50.828;3.228;2023-08-24T11:33:27;5.28;;;4.03;;
49578;SDS011;35483;50.828;3.228;2023-08-24T11:35:58;7.63;;;4.60;;
49578;SDS011;35483;50.828;3.228;2023-08-24T11:38:25;9.02;;;4.63;;
49578;SDS011;35483;50.828;3.228;2023-08-24T11:40:59;6.38;;;4.90;;
49578;SDS011;35483;50.828;3.228;2023-08-24T11:43:25;4.75;;;4.20;;
49578;SDS011;35483;50.828;3.228;2023-08-24T11:45:53;5.68;;;4.50;;
49578;SDS011;35483;50.828;3.228;2023-08-24T11:48:23;5.10;;;4.50;;
49578;SDS011;35483;50.828;3.228;2023-08-24T11:50:54;6.43;;;4.50;;
49578;SDS011;35483;50.828;3.228;2023-08-24T11:53:21;5.70;;;4.50;;
49578;SDS011;35483;50.828;3.228;2023-08-24T11:55:48;6.10;;;4.28;;
49578;SDS011;35483;50.828;3.228;2023-08-24T11:58:14;5.80;;;4.75;;
49578;SDS011;35483;50.828;3.228;2023-08-24T12:00:41;7.60;;;4.50;;
49578;SDS011;35483;50.828;3.228;2023-08-24T12:03:08;4.53;;;4.13;;
49578;SDS011;35483;50.828;3.228;2023-08-24T12:05:34;5.95;;;4.35;;
49578;SDS011;35483;50.828;3.228;2023-08-24T12:08:00;6.97;;;4.25;;
49578;SDS011;35483;50.828;3.228;2023-08-24T12:10:26;5.70;;;4.75;;
49578;SDS011;35483;50.828;3.228;2023-08-24T12:13:05;5.75;;;4.25;;
49578;SDS011;35483;50.828;3.228;2023-08-24T12:15:33;4.80;;;4.40;;
49578;SDS011;35483;50.828;3.228;2023-08-24T12:18:10;4.70;;;4.30;;
49578;SDS011;35483;50.828;3.228;2023-08-24T12:20:42;6.60;;;4.53;;
49578;SDS011;35483;50.828;3.228;2023-08-24T12:23:09;5.28;;;4.68;;
49578;SDS011;35483;50.828;3.228;2023-08-24T12:25:36;4.05;;;3.50;;
49578;SDS011;35483;50.828;3.228;2023-08-24T12:28:13;6.40;;;3.90;;
49578;SDS011;35483;50.828;3.228;2023-08-24T12:30:49;4.85;;;4.03;;
49578;SDS011;35483;50.828;3.228;2023-08-24T12:33:23;5.78;;;4.07;;
49578;SDS011;35483;50.828;3.228;2023-08-24T12:35:50;4.50;;;3.80;;
49578;SDS011;35483;50.828;3.228;2023-08-24T12:38:16;3.92;;;3.63;;
49578;SDS011;35483;50.828;3.228;2023-08-24T12:40:42;4.80;;;4.30;;
49578;SDS011;35483;50.828;3.228;2023-08-24T12:43:09;4.85;;;3.55;;
49578;SDS011;35483;50.828;3.228;2023-08-24T12:45:34;5.63;;;3.78;;
49578;SDS011;35483;50.828;3.228;2023-08-24T12:48:03;5.60;;;3.47;;
49578;SDS011;35483;50.828;3.228;2023-08-24T12:50:29;3.67;;;3.38;;
49578;SDS011;35483;50.828;3.228;2023-08-24T12:52:56;6.13;;;3.90;;
49578;SDS011;35483;50.828;3.228;2023-08-24T12:55:25;6.65;;;3.72;;
49578;SDS011;35483;50.828;3.228;2023-08-24T12:57:51;4.53;;;3.70;;
49578;SDS011;35483;50.828;3.228;2023-08-24T13:00:18;5.75;;;3.28;;
49578;SDS011;35483;50.828;3.228;2023-08-24T13:02:44;6.15;;;4.10;;
49578;SDS011;35483;50.828;3.228;2023-08-24T13:05:10;4.78;;;3.20;;
49578;SDS011;35483;50.828;3.228;2023-08-24T13:07:36;3.85;;;3.08;;
49578;SDS011;35483;50.828;3.228;2023-08-24T13:10:03;6.32;;;3.35;;
49578;SDS011;35483;50.828;3.228;2023-08-24T13:12:29;3.78;;;3.33;;
49578;SDS011;35483;50.828;3.228;2023-08-24T13:14:55;4.10;;;3.28;;
49578;SDS011;35483;50.828;3.228;2023-08-24T13:17:21;4.15;;;3.13;;
49578;SDS011;35483;50.828;3.228;2023-08-24T13:19:47;4.28;;;3.30;;
49578;SDS011;35483;50.828;3.228;2023-08-24T13:22:14;4.72;;;3.47;;
49578;SDS011;35483;50.828;3.228;2023-08-24T13:24:40;3.47;;;3.13;;
49578;SDS011;35483;50.828;3.228;2023-08-24T13:27:08;3.20;;;2.72;;
49578;SDS011;35483;50.828;3.228;2023-08-24T13:29:35;4.72;;;3.10;;
49578;SDS011;35483;50.828;3.228;2023-08-24T13:32:02;2.72;;;2.50;;
49578;SDS011;35483;50.828;3.228;2023-08-24T13:34:28;3.33;;;3.03;;
49578;SDS011;35483;50.828;3.228;2023-08-24T13:36:56;5.70;;;3.30;;
49578;SDS011;35483;50.828;3.228;2023-08-24T13:39:23;2.55;;;2.35;;
49578;SDS011;35483;50.828;3.228;2023-08-24T13:41:55;3.08;;;2.60;;
49578;SDS011;35483;50.828;3.228;2023-08-24T13:44:21;3.90;;;2.78;;
49578;SDS011;35483;50.828;3.228;2023-08-24T13:46:47;3.13;;;2.22;;
49578;SDS011;35483;50.828;3.228;2023-08-24T13:49:13;2.60;;;2.40;;
49578;SDS011;35483;50.828;3.228;2023-08-24T13:51:39;2.50;;;2.30;;
49578;SDS011;35483;50.828;3.228;2023-08-24T13:54:17;4.18;;;2.45;;
49578;SDS011;35483;50.828;3.228;2023-08-24T13:56:46;3.38;;;2.47;;
49578;SDS011;35483;50.828;3.228;2023-08-24T13:59:13;2.60;;;2.40;;
49578;SDS011;35483;50.828;3.228;2023-08-24T14:01:40;2.95;;;2.58;;
49578;SDS011;35483;50.828;3.228;2023-08-24T14:04:06;4.32;;;2.83;;
49578;SDS011;35483;50.828;3.228;2023-08-24T14:06:33;4.35;;;2.70;;
49578;SDS011;35483;50.828;3.228;2023-08-24T14:08:59;4.28;;;2.70;;
49578;SDS011;35483;50.828;3.228;2023-08-24T14:11:27;3.15;;;2.53;;
49578;SDS011;35483;50.828;3.228;2023-08-24T14:13:53;4.38;;;2.70;;
49578;SDS011;35483;50.828;3.228;2023-08-24T14:16:19;2.90;;;2.60;;
49578;SDS011;35483;50.828;3.228;2023-08-24T14:18:45;3.83;;;2.63;;
49578;SDS011;35483;50.828;3.228;2023-08-24T14:21:11;3.92;;;2.50;;
49578;SDS011;35483;50.828;3.228;2023-08-24T14:23:37;4.32;;;2.53;;
49578;SDS011;35483;50.828;3.228;2023-08-24T14:26:02;2.78;;;2.50;;
49578;SDS011;35483;50.828;3.228;2023-08-24T14:28:46;3.60;;;2.30;;
49578;SDS011;35483;50.828;3.228;2023-08-24T14:31:18;5.22;;;2.33;;
49578;SDS011;35483;50.828;3.228;2023-08-24T14:33:43;3.80;;;2.05;;
49578;SDS011;35483;50.828;3.228;2023-08-24T14:36:09;4.63;;;2.97;;
49578;SDS011;35483;50.828;3.228;2023-08-24T14:38:38;2.40;;;2.20;;
49578;SDS011;35483;50.828;3.228;2023-08-24T14:41:05;3.25;;;2.03;;
49578;SDS011;35483;50.828;3.228;2023-08-24T14:43:31;2.90;;;2.05;;
49578;SDS011;35483;50.828;3.228;2023-08-24T14:45:57;3.28;;;2.25;;
49578;SDS011;35483;50.828;3.228;2023-08-24T14:48:22;2.90;;;2.25;;
49578;SDS011;35483;50.828;3.228;2023-08-24T14:50:48;2.40;;;1.73;;
49578;SDS011;35483;50.828;3.228;2023-08-24T14:53:14;2.70;;;2.20;;
49578;SDS011;35483;50.828;3.228;2023-08-24T14:55:40;4.28;;;2.17;;
49578;SDS011;35483;50.828;3.228;2023-08-24T14:58:06;3.58;;;2.10;;